Portada
METAR-TAF:

METAR-TAF

Aeroports :

Plataforma petroliera

P11-b, Països Baixos

latitud: 52-21-36N, longitud: 3-20-30E, altitud: 24 m

Observació

L'informe es va fer fa 32 minuts, a les 19:55 UTC
Vent 15 kt del Nord/Nord-Est
Temperatura 14°C
Humitat 88%
Pressió 1021 hPa
Visibilitat 10 km o més

METAR: EHPG 011955Z AUTO 03015KT 9999 NSC 14/12 Q1021

Hora: 22:27 (20:27 UTC)


TAF: manca

Observacions i pronòstics meteorològics de més de 4000 aeroports (METAR i TAF).

Les estacions disponibles són els punts grocs i vermells al mapa.

Posi el ratolí al punt desitjat per veure el nom de l'estació.

Feu clic per veure les observacions i els pronòstics meteorològics.

Per canviar el mapa: feu clic els botons verds amb una creu de color negre per apropar; al botó verd amb un guió per allunyar la imatge; o en les fletxes verdes per a mapes adjacents.


METAR-TAF: